createdAt,value
2022-08-15T00:00:57.114Z,993.28
2022-08-15T00:01:57.095Z,993.31
2022-08-15T00:02:57.107Z,993.26
2022-08-15T00:03:57.072Z,993.2
2022-08-15T00:04:57.063Z,993.25
2022-08-15T00:05:57.050Z,993.25
2022-08-15T00:06:57.053Z,993.24
2022-08-15T00:07:57.031Z,993.29
2022-08-15T00:08:57.045Z,993.22
2022-08-15T00:09:57.009Z,993.23
2022-08-15T00:10:56.992Z,993.18
2022-08-15T00:11:56.986Z,993.17
2022-08-15T00:12:56.977Z,993.19
2022-08-15T00:13:56.964Z,993.18
2022-08-15T00:14:56.950Z,993.2
2022-08-15T00:15:56.968Z,993.11
2022-08-15T00:16:56.950Z,993.13
2022-08-15T00:17:56.935Z,993.17
2022-08-15T00:18:56.938Z,993.13
2022-08-15T00:19:56.912Z,993.16
2022-08-15T00:20:56.888Z,993.13
2022-08-15T00:21:56.900Z,993.12
2022-08-15T00:22:56.870Z,993.12
2022-08-15T00:23:56.864Z,993.16
2022-08-15T00:24:56.900Z,993.13
2022-08-15T00:25:56.859Z,993.14
2022-08-15T00:26:56.835Z,993.08
2022-08-15T00:27:56.824Z,993.13
2022-08-15T00:28:56.810Z,993.16
2022-08-15T00:29:56.797Z,993.11
2022-08-15T00:30:56.791Z,993.14
2022-08-15T00:31:56.814Z,993.12
2022-08-15T00:32:56.779Z,993.16
2022-08-15T00:33:56.756Z,993.12
2022-08-15T00:34:56.753Z,993.13
2022-08-15T00:35:56.765Z,993.1
2022-08-15T00:36:56.743Z,993.1
2022-08-15T00:37:56.746Z,993.07
2022-08-15T00:38:56.699Z,993.07
2022-08-15T00:39:56.700Z,993.03
2022-08-15T00:40:56.684Z,993.04
2022-08-15T00:41:56.681Z,993.03
2022-08-15T00:42:56.665Z,993.03
2022-08-15T00:43:56.650Z,993.01
2022-08-15T00:44:56.639Z,993.02
2022-08-15T00:45:56.666Z,993.01
2022-08-15T00:46:56.618Z,992.97
2022-08-15T00:47:56.618Z,992.98
2022-08-15T00:48:56.608Z,992.94
2022-08-15T00:49:56.615Z,992.93
2022-08-15T00:50:56.580Z,992.9
2022-08-15T00:51:56.569Z,992.95
2022-08-15T00:52:56.558Z,992.93
2022-08-15T00:53:56.558Z,992.89
2022-08-15T00:54:56.548Z,992.91
2022-08-15T00:55:56.530Z,992.93
2022-08-15T00:56:56.519Z,992.94
2022-08-15T00:57:56.521Z,992.94
2022-08-15T00:58:56.496Z,992.93
2022-08-15T00:59:56.487Z,992.9
2022-08-15T01:00:56.473Z,992.93
2022-08-15T01:01:56.465Z,992.88
2022-08-15T01:02:56.459Z,992.86
2022-08-15T01:03:56.440Z,992.88
2022-08-15T01:04:56.428Z,992.87
2022-08-15T01:05:56.429Z,992.92
2022-08-15T01:06:56.411Z,992.91
2022-08-15T01:07:56.398Z,992.91
2022-08-15T01:08:56.388Z,992.89
2022-08-15T01:09:56.384Z,992.91
2022-08-15T01:10:56.366Z,992.85
2022-08-15T01:11:56.365Z,992.86
2022-08-15T01:12:56.345Z,992.86
2022-08-15T01:13:56.343Z,992.87
2022-08-15T01:14:56.334Z,992.81
2022-08-15T01:15:56.365Z,992.82
2022-08-15T01:16:56.301Z,992.84
2022-08-15T01:17:56.303Z,992.82
2022-08-15T01:18:56.285Z,992.89
2022-08-15T01:19:56.273Z,992.87
2022-08-15T01:20:56.263Z,992.89
2022-08-15T01:21:56.255Z,992.89
2022-08-15T01:22:56.240Z,992.9
2022-08-15T01:23:56.258Z,992.88
2022-08-15T01:24:56.220Z,992.92
2022-08-15T01:25:56.215Z,992.88
2022-08-15T01:26:56.804Z,992.92
2022-08-15T01:27:56.189Z,992.94
2022-08-15T01:28:56.192Z,992.97
2022-08-15T01:29:56.185Z,992.9
2022-08-15T01:30:56.155Z,992.91
2022-08-15T01:31:56.148Z,992.88
2022-08-15T01:32:56.140Z,992.9
2022-08-15T01:33:56.122Z,992.87
2022-08-15T01:34:56.120Z,992.84
2022-08-15T01:35:56.106Z,992.82
2022-08-15T01:36:56.108Z,992.86
2022-08-15T01:37:56.106Z,992.79
2022-08-15T01:38:56.079Z,992.82
2022-08-15T01:39:56.067Z,992.8
2022-08-15T01:40:56.065Z,992.81
2022-08-15T01:41:56.052Z,992.79
2022-08-15T01:42:56.037Z,992.85
2022-08-15T01:43:56.027Z,992.85
2022-08-15T01:44:56.025Z,992.86
2022-08-15T01:45:56.004Z,992.88
2022-08-15T01:46:55.997Z,992.82
2022-08-15T01:47:55.979Z,992.84
2022-08-15T01:48:55.969Z,992.84
2022-08-15T01:49:55.976Z,992.8
2022-08-15T01:50:55.960Z,992.8
2022-08-15T01:51:55.940Z,992.76
2022-08-15T01:52:55.970Z,992.76
2022-08-15T01:53:55.912Z,992.76
2022-08-15T01:54:55.905Z,992.72
2022-08-15T01:55:55.893Z,992.79
2022-08-15T01:56:55.894Z,992.7
2022-08-15T01:57:55.882Z,992.71
2022-08-15T01:58:55.871Z,992.69
2022-08-15T01:59:55.850Z,992.65
2022-08-15T02:00:55.843Z,992.62
2022-08-15T02:01:55.838Z,992.66
2022-08-15T02:02:55.839Z,992.61
2022-08-15T02:03:55.837Z,992.65
2022-08-15T02:04:55.806Z,992.6
2022-08-15T02:05:55.787Z,992.64
2022-08-15T02:06:55.787Z,992.61
2022-08-15T02:07:55.771Z,992.5
2022-08-15T02:08:55.765Z,992.48
2022-08-15T02:09:55.750Z,992.52
2022-08-15T02:10:55.748Z,992.55
2022-08-15T02:11:55.747Z,992.51
2022-08-15T02:12:55.717Z,992.5
2022-08-15T02:13:55.712Z,992.48
2022-08-15T02:14:55.710Z,992.42
2022-08-15T02:15:55.690Z,992.4
2022-08-15T02:16:55.678Z,992.31
2022-08-15T02:17:55.665Z,992.33
2022-08-15T02:18:55.654Z,992.31
2022-08-15T02:19:55.648Z,992.31
2022-08-15T02:20:55.643Z,992.29
2022-08-15T02:21:55.628Z,992.33
2022-08-15T02:22:55.644Z,992.25
2022-08-15T02:23:55.606Z,992.27
2022-08-15T02:24:55.593Z,992.24
2022-08-15T02:25:55.588Z,992.21
2022-08-15T02:26:55.590Z,992.25
2022-08-15T02:27:55.567Z,992.22
2022-08-15T02:28:55.564Z,992.19
2022-08-15T02:29:55.537Z,992.2
2022-08-15T02:30:55.530Z,992.15
2022-08-15T02:31:55.528Z,992.15
2022-08-15T02:32:55.508Z,992.13
2022-08-15T02:33:55.508Z,992.12
2022-08-15T02:34:55.514Z,992.16
2022-08-15T02:35:55.482Z,992.13
2022-08-15T02:36:55.463Z,992.14
2022-08-15T02:37:55.464Z,992.12
2022-08-15T02:38:55.458Z,992.18
2022-08-15T02:39:55.437Z,992.11
2022-08-15T02:40:55.422Z,992.17
2022-08-15T02:41:55.424Z,992.15
2022-08-15T02:42:55.400Z,992.15
2022-08-15T02:43:55.396Z,992.11
2022-08-15T02:44:55.384Z,992.08
2022-08-15T02:45:55.384Z,992.16
2022-08-15T02:46:55.371Z,992.2
2022-08-15T02:47:55.351Z,992.13
2022-08-15T02:48:55.343Z,992.14
2022-08-15T02:49:55.332Z,992.16
2022-08-15T02:50:55.318Z,992.09
2022-08-15T02:51:55.310Z,992.05
2022-08-15T02:52:55.302Z,992.01
2022-08-15T02:53:55.294Z,992.04
2022-08-15T02:54:55.282Z,992.05
2022-08-15T02:55:55.273Z,992.03
2022-08-15T02:56:55.257Z,991.98
2022-08-15T02:57:55.262Z,991.92
2022-08-15T02:58:55.237Z,991.96
2022-08-15T02:59:55.234Z,991.98
2022-08-15T03:00:55.213Z,992.01
2022-08-15T03:01:55.211Z,991.95
2022-08-15T03:02:55.196Z,991.94
2022-08-15T03:03:55.188Z,991.88
2022-08-15T03:04:55.175Z,991.88
2022-08-15T03:05:55.165Z,991.94
2022-08-15T03:06:55.157Z,991.94
2022-08-15T03:07:55.145Z,991.92
2022-08-15T03:08:55.132Z,991.88
2022-08-15T03:09:55.131Z,991.93
2022-08-15T03:10:55.115Z,991.82
2022-08-15T03:11:55.106Z,991.86
2022-08-15T03:12:55.091Z,991.78
2022-08-15T03:13:55.083Z,991.77
2022-08-15T03:14:55.083Z,991.75
2022-08-15T03:15:55.066Z,991.71
2022-08-15T03:16:55.049Z,991.7
2022-08-15T03:17:55.058Z,991.67
2022-08-15T03:18:55.029Z,991.7
2022-08-15T03:19:55.022Z,991.69
2022-08-15T03:20:55.032Z,991.71
2022-08-15T03:21:54.996Z,991.66
2022-08-15T03:22:54.993Z,991.66
2022-08-15T03:23:54.978Z,991.72
2022-08-15T03:24:54.970Z,991.69
2022-08-15T03:25:54.969Z,991.69
2022-08-15T03:26:54.971Z,991.71
2022-08-15T03:27:54.936Z,991.67
2022-08-15T03:28:54.920Z,991.67
2022-08-15T03:29:54.919Z,991.74
2022-08-15T03:30:54.906Z,991.74
2022-08-15T03:31:54.893Z,991.78
2022-08-15T03:32:54.881Z,991.76
2022-08-15T03:33:54.869Z,991.75
2022-08-15T03:34:54.863Z,991.74
2022-08-15T03:35:54.848Z,991.76
2022-08-15T03:36:54.849Z,991.73
2022-08-15T03:37:54.836Z,991.7
2022-08-15T03:38:54.823Z,991.58
2022-08-15T03:39:54.812Z,991.57
2022-08-15T03:40:54.795Z,991.56
2022-08-15T03:41:54.783Z,991.54
2022-08-15T03:42:54.785Z,991.5
2022-08-15T03:43:54.769Z,991.57
2022-08-15T03:44:54.756Z,991.48
2022-08-15T03:45:54.743Z,991.49
2022-08-15T03:46:54.735Z,991.46
2022-08-15T03:47:54.726Z,991.47
2022-08-15T03:48:54.718Z,991.53
2022-08-15T03:49:54.717Z,991.53
2022-08-15T03:50:54.689Z,991.55
2022-08-15T03:51:54.680Z,991.54
2022-08-15T03:52:54.674Z,991.59
2022-08-15T03:53:54.663Z,991.62
2022-08-15T03:54:54.658Z,991.53
2022-08-15T03:55:54.649Z,991.57
2022-08-15T03:56:54.628Z,991.56
2022-08-15T03:57:54.622Z,991.57
2022-08-15T03:58:54.610Z,991.61
2022-08-15T03:59:54.599Z,991.64
2022-08-15T04:00:54.592Z,991.61
2022-08-15T04:01:54.580Z,991.61
2022-08-15T04:02:54.566Z,991.63
2022-08-15T04:03:54.564Z,991.59
2022-08-15T04:04:54.559Z,991.61
2022-08-15T04:05:54.541Z,991.57
2022-08-15T04:06:54.530Z,991.6
2022-08-15T04:07:54.518Z,991.58
2022-08-15T04:08:54.514Z,991.58
2022-08-15T04:09:54.496Z,991.58
2022-08-15T04:10:54.486Z,991.57
2022-08-15T04:11:54.489Z,991.56
2022-08-15T04:12:54.473Z,991.63
2022-08-15T04:13:54.456Z,991.58
2022-08-15T04:14:54.443Z,991.56
2022-08-15T04:15:54.436Z,991.55
2022-08-15T04:16:54.423Z,991.52
2022-08-15T04:17:54.414Z,991.51
2022-08-15T04:18:54.432Z,991.46
2022-08-15T04:19:54.407Z,991.52
2022-08-15T04:20:54.387Z,991.5
2022-08-15T04:21:54.372Z,991.47
2022-08-15T04:22:54.361Z,991.47
2022-08-15T04:23:54.353Z,991.49
2022-08-15T04:24:54.361Z,991.51
2022-08-15T04:25:54.343Z,991.5
2022-08-15T04:28:12.413Z,991.56
2022-08-15T04:29:12.378Z,991.57
2022-08-15T04:30:12.396Z,991.51
2022-08-15T04:31:12.377Z,991.51
2022-08-15T04:32:12.355Z,991.56
2022-08-15T04:33:12.345Z,991.57
2022-08-15T04:34:12.329Z,991.57
2022-08-15T04:35:12.320Z,991.59
2022-08-15T04:36:12.309Z,991.55
2022-08-15T04:37:12.303Z,991.54
2022-08-15T04:38:12.297Z,991.54
2022-08-15T04:39:12.290Z,991.52
2022-08-15T04:40:12.269Z,991.53
2022-08-15T04:41:12.261Z,991.59
2022-08-15T04:42:12.246Z,991.51
2022-08-15T04:43:12.233Z,991.59
2022-08-15T04:44:12.229Z,991.56
2022-08-15T04:45:12.219Z,991.57
2022-08-15T04:46:12.215Z,991.55
2022-08-15T04:47:12.184Z,991.55
2022-08-15T04:48:12.177Z,991.58
2022-08-15T04:49:12.268Z,991.56
2022-08-15T04:50:12.166Z,991.62
2022-08-15T04:51:12.153Z,991.6
2022-08-15T04:52:12.144Z,991.58
2022-08-15T04:53:12.122Z,991.57
2022-08-15T04:54:12.119Z,991.55
2022-08-15T04:55:13.113Z,991.62
2022-08-15T04:56:12.097Z,991.6
2022-08-15T04:57:12.104Z,991.63
2022-08-15T04:58:12.093Z,991.63
2022-08-15T04:59:12.072Z,991.63
2022-08-15T05:00:12.050Z,991.63
2022-08-15T05:01:12.053Z,991.59
2022-08-15T05:02:12.037Z,991.63
2022-08-15T05:03:12.026Z,991.57
2022-08-15T05:04:12.016Z,991.64
2022-08-15T05:05:12.005Z,991.64
2022-08-15T05:06:11.989Z,991.65
2022-08-15T05:07:11.980Z,991.61
2022-08-15T05:08:11.976Z,991.6
2022-08-15T05:09:11.955Z,991.6
2022-08-15T05:10:11.947Z,991.59
2022-08-15T05:11:11.946Z,991.65
2022-08-15T05:12:11.939Z,991.65
2022-08-15T05:13:11.932Z,991.64
2022-08-15T05:14:11.957Z,991.67
2022-08-15T05:15:11.894Z,991.73
2022-08-15T05:16:11.901Z,991.68
2022-08-15T05:17:11.880Z,991.7
2022-08-15T05:18:11.861Z,991.68
2022-08-15T05:19:11.855Z,991.67
2022-08-15T05:20:11.875Z,991.67
2022-08-15T05:21:11.842Z,991.69
2022-08-15T05:22:11.831Z,991.71
2022-08-15T05:23:11.813Z,991.62
2022-08-15T05:24:11.806Z,991.6
2022-08-15T05:25:11.791Z,991.62
2022-08-15T05:26:11.787Z,991.61
2022-08-15T05:27:11.784Z,991.53
2022-08-15T05:28:11.769Z,991.51
2022-08-15T05:29:11.762Z,991.49
2022-08-15T05:30:11.742Z,991.47
2022-08-15T05:31:11.735Z,991.46
2022-08-15T05:32:11.716Z,991.46
2022-08-15T05:33:11.705Z,991.5
2022-08-15T05:34:11.700Z,991.52
2022-08-15T05:35:11.704Z,991.44
2022-08-15T05:36:11.678Z,991.46
2022-08-15T05:37:11.671Z,991.51
2022-08-15T05:38:11.665Z,991.51
2022-08-15T05:39:11.642Z,991.54
2022-08-15T05:40:11.639Z,991.5
2022-08-15T05:41:11.619Z,991.53
2022-08-15T05:42:19.201Z,991.52
2022-08-15T05:43:21.158Z,991.55
2022-08-15T05:44:11.597Z,991.6
2022-08-15T05:45:11.583Z,991.53
2022-08-15T05:46:20.174Z,991.55
2022-08-15T05:47:19.131Z,991.6
2022-08-15T05:48:11.545Z,991.57
2022-08-15T05:49:11.543Z,991.61
2022-08-15T05:50:12.527Z,991.62
2022-08-15T05:51:11.542Z,991.62
2022-08-15T05:52:11.516Z,991.67
2022-08-15T05:53:11.493Z,991.68
2022-08-15T05:54:11.499Z,991.66
2022-08-15T05:55:11.477Z,991.65
2022-08-15T05:56:11.462Z,991.66
2022-08-15T05:57:19.074Z,991.66
2022-08-15T05:58:11.451Z,991.67
2022-08-15T05:59:11.431Z,991.73
2022-08-15T06:00:11.436Z,991.7
2022-08-15T06:01:11.413Z,991.65
2022-08-15T06:02:11.401Z,991.6
2022-08-15T06:03:11.401Z,991.6
2022-08-15T06:04:11.391Z,991.66
2022-08-15T06:05:11.371Z,991.59
2022-08-15T06:06:11.358Z,991.6
2022-08-15T06:07:11.355Z,991.6
2022-08-15T06:08:11.351Z,991.61
2022-08-15T06:09:11.324Z,991.64
2022-08-15T06:10:11.324Z,991.68
2022-08-15T06:11:11.339Z,991.67
2022-08-15T06:12:11.294Z,991.6
2022-08-15T06:13:11.293Z,991.68
2022-08-15T06:14:11.283Z,991.65
2022-08-15T06:15:11.261Z,991.71
2022-08-15T06:16:11.327Z,991.68
2022-08-15T06:17:11.238Z,991.69
2022-08-15T06:18:11.249Z,991.68
2022-08-15T06:19:11.238Z,991.69
2022-08-15T06:20:11.226Z,991.69
2022-08-15T06:21:11.207Z,991.71
2022-08-15T06:22:11.197Z,991.69
2022-08-15T06:23:11.198Z,991.66
2022-08-15T06:24:11.169Z,991.58
2022-08-15T06:25:11.181Z,991.6
2022-08-15T06:26:11.147Z,991.59
2022-08-15T06:27:11.174Z,991.55
2022-08-15T06:28:11.146Z,991.62
2022-08-15T06:29:18.846Z,991.72
2022-08-15T06:30:18.764Z,991.68
2022-08-15T06:31:11.114Z,991.7
2022-08-15T06:32:11.087Z,991.73
2022-08-15T06:33:11.080Z,991.72
2022-08-15T06:34:11.070Z,991.75
2022-08-15T06:35:11.050Z,991.75
2022-08-15T06:36:11.044Z,991.8
2022-08-15T06:37:11.035Z,991.77
2022-08-15T06:38:11.022Z,991.75
2022-08-15T06:39:11.017Z,991.82
2022-08-15T06:40:11.018Z,991.88
2022-08-15T06:41:10.989Z,991.92
2022-08-15T06:42:10.984Z,991.97
2022-08-15T06:43:10.972Z,991.97
2022-08-15T06:44:10.962Z,992.02
2022-08-15T06:45:10.958Z,992.04
2022-08-15T06:46:10.946Z,991.97
2022-08-15T06:47:10.939Z,991.97
2022-08-15T06:48:10.920Z,991.9
2022-08-15T06:49:10.912Z,991.94
2022-08-15T06:50:10.900Z,991.96
2022-08-15T06:51:10.892Z,991.95
2022-08-15T06:52:18.494Z,992.04
2022-08-15T06:53:10.866Z,992.01
2022-08-15T06:54:10.855Z,992.03
2022-08-15T06:55:10.848Z,992.01
2022-08-15T06:56:10.833Z,991.99
2022-08-15T06:57:10.831Z,991.98
2022-08-15T06:58:10.855Z,991.98
2022-08-15T06:59:18.480Z,991.97
2022-08-15T07:00:10.793Z,991.94
2022-08-15T07:01:10.777Z,991.91
2022-08-15T07:02:18.345Z,991.93
2022-08-15T07:03:10.760Z,991.96
2022-08-15T07:04:19.336Z,991.97
2022-08-15T07:05:10.739Z,991.97
2022-08-15T07:06:10.727Z,992.02
2022-08-15T07:07:18.301Z,991.99
2022-08-15T07:08:10.706Z,991.92
2022-08-15T07:09:10.712Z,991.92
2022-08-15T07:10:10.696Z,991.91
2022-08-15T07:11:10.679Z,991.95
2022-08-15T07:12:10.677Z,991.99
2022-08-15T07:13:10.682Z,991.92
2022-08-15T07:14:10.652Z,991.93
2022-08-15T07:15:10.707Z,991.86
2022-08-15T07:16:10.644Z,991.88
2022-08-15T07:17:10.622Z,991.87
2022-08-15T07:18:10.613Z,991.87
2022-08-15T07:19:10.608Z,991.83
2022-08-15T07:20:10.602Z,991.81
2022-08-15T07:21:10.575Z,991.79
2022-08-15T07:22:10.607Z,991.77
2022-08-15T07:23:10.554Z,991.84
2022-08-15T07:24:10.541Z,991.83
2022-08-15T07:25:10.529Z,991.82
2022-08-15T07:26:10.531Z,991.76
2022-08-15T07:27:10.534Z,991.84
2022-08-15T07:28:10.510Z,991.84
2022-08-15T07:30:10.532Z,991.74
2022-08-15T07:31:10.469Z,991.78
2022-08-15T07:32:10.473Z,991.79
2022-08-15T07:33:10.476Z,991.75
2022-08-15T07:34:10.435Z,991.77
2022-08-15T07:35:10.429Z,991.84
2022-08-15T07:36:10.448Z,991.81
2022-08-15T07:37:10.405Z,991.83
2022-08-15T07:38:10.394Z,991.88
2022-08-15T07:39:10.397Z,991.83
2022-08-15T07:40:10.390Z,991.83
2022-08-15T07:41:10.385Z,991.82
2022-08-15T07:42:10.362Z,991.89
2022-08-15T07:43:10.343Z,991.82
2022-08-15T07:44:10.329Z,991.91
2022-08-15T07:45:10.328Z,991.87
2022-08-15T07:46:10.312Z,991.89
2022-08-15T07:47:10.299Z,991.83
2022-08-15T07:48:10.319Z,991.85
2022-08-15T07:49:10.282Z,991.88
2022-08-15T07:50:10.268Z,991.85
2022-08-15T07:51:10.297Z,991.92
2022-08-15T07:52:10.271Z,991.84
2022-08-15T07:53:10.245Z,991.87
2022-08-15T07:54:10.230Z,991.87
2022-08-15T07:55:10.219Z,991.88
2022-08-15T07:57:10.199Z,991.85
2022-08-15T07:58:10.185Z,991.87
2022-08-15T07:59:10.177Z,991.87
2022-08-15T08:00:10.166Z,991.9
2022-08-15T08:01:10.159Z,991.9
2022-08-15T08:02:10.143Z,991.95
2022-08-15T08:03:10.148Z,991.92
2022-08-15T08:04:10.141Z,991.92
2022-08-15T08:05:10.116Z,991.91
2022-08-15T08:06:10.111Z,991.96
2022-08-15T08:07:10.102Z,991.96
2022-08-15T08:08:10.106Z,992
2022-08-15T08:09:10.080Z,991.98
2022-08-15T08:10:10.097Z,991.98
2022-08-15T08:11:10.055Z,992.02
2022-08-15T08:12:10.044Z,991.98
2022-08-15T08:13:10.037Z,992
2022-08-15T08:14:10.047Z,991.96
2022-08-15T08:15:10.026Z,992.03
2022-08-15T08:16:10.012Z,991.94
2022-08-15T08:17:10.010Z,992
2022-08-15T08:18:09.979Z,991.98
2022-08-15T08:19:09.973Z,992.02
2022-08-15T08:20:09.958Z,991.96
2022-08-15T08:21:09.967Z,991.92
2022-08-15T08:22:09.939Z,991.88
2022-08-15T08:23:09.936Z,991.89
2022-08-15T08:24:09.927Z,991.88
2022-08-15T08:25:09.907Z,991.81
2022-08-15T08:26:09.895Z,991.89
2022-08-15T08:27:09.887Z,991.85
2022-08-15T08:28:09.879Z,991.83
2022-08-15T08:29:09.879Z,991.78
2022-08-15T08:30:09.855Z,991.85
2022-08-15T08:31:09.863Z,991.88
2022-08-15T08:32:09.836Z,991.86
2022-08-15T08:33:09.828Z,991.84
2022-08-15T08:34:09.839Z,991.89
2022-08-15T08:35:09.804Z,991.89
2022-08-15T08:36:09.795Z,991.93
2022-08-15T08:37:09.785Z,992
2022-08-15T08:38:09.771Z,991.89
2022-08-15T08:39:09.768Z,991.98
2022-08-15T08:40:09.769Z,992.04
2022-08-15T08:41:09.737Z,992
2022-08-15T08:42:09.734Z,991.94
2022-08-15T08:43:09.728Z,992.03
2022-08-15T08:44:09.712Z,992
2022-08-15T08:45:09.717Z,992
2022-08-15T08:46:09.713Z,992.06
2022-08-15T08:47:09.676Z,991.92
2022-08-15T08:48:09.670Z,992.03
2022-08-15T08:49:09.666Z,991.95
2022-08-15T08:50:09.654Z,991.98
2022-08-15T08:51:09.658Z,991.97
2022-08-15T08:52:09.705Z,991.98
2022-08-15T08:53:10.581Z,991.97
2022-08-15T08:54:09.609Z,992.03
2022-08-15T08:55:09.599Z,992.03
2022-08-15T08:56:09.598Z,992.03
2022-08-15T08:57:09.593Z,992.04
2022-08-15T08:58:09.581Z,992.09
2022-08-15T08:59:09.564Z,992.01
2022-08-15T09:00:09.548Z,992.02
2022-08-15T09:01:09.540Z,992.05
2022-08-15T09:02:09.537Z,992.08
2022-08-15T09:03:09.526Z,992
2022-08-15T09:04:09.522Z,992.11
2022-08-15T09:05:09.503Z,992.17
2022-08-15T09:06:09.490Z,992.08
2022-08-15T09:07:09.627Z,992.09
2022-08-15T09:08:09.471Z,992.15
2022-08-15T09:09:09.466Z,992.12
2022-08-15T09:10:09.482Z,992.1
2022-08-15T09:11:09.453Z,992.12
2022-08-15T09:12:09.443Z,992.11
2022-08-15T09:13:09.418Z,992.1
2022-08-15T09:14:09.412Z,992.16
2022-08-15T09:15:09.407Z,992.13
2022-08-15T09:16:09.394Z,992.09
2022-08-15T09:17:09.762Z,992.21
2022-08-15T09:18:09.364Z,992.23
2022-08-15T09:19:09.353Z,992.21
2022-08-15T09:20:09.343Z,992.23
2022-08-15T09:21:09.336Z,992.17
2022-08-15T09:22:09.331Z,992.15
2022-08-15T09:23:09.313Z,992.22
2022-08-15T09:24:09.311Z,992.22
2022-08-15T09:25:09.293Z,992.23
2022-08-15T09:26:09.291Z,992.28
2022-08-15T09:27:09.284Z,992.2
2022-08-15T09:28:09.314Z,992.29
2022-08-15T09:29:09.253Z,992.3
2022-08-15T09:30:09.243Z,992.36
2022-08-15T09:31:09.235Z,992.28
2022-08-15T09:32:09.226Z,992.31
2022-08-15T09:33:09.233Z,992.3
2022-08-15T09:34:09.209Z,992.31
2022-08-15T09:35:09.195Z,992.34
2022-08-15T09:36:09.225Z,992.31
2022-08-15T09:37:09.172Z,992.33
2022-08-15T09:38:09.178Z,992.3
2022-08-15T09:39:09.163Z,992.26
2022-08-15T09:40:09.153Z,992.21
2022-08-15T09:41:09.154Z,992.27
2022-08-15T09:42:09.118Z,992.28
2022-08-15T09:43:09.109Z,992.25
2022-08-15T09:44:09.113Z,992.31
2022-08-15T09:45:09.115Z,992.29
2022-08-15T09:46:09.087Z,992.24
2022-08-15T09:47:09.080Z,992.3
2022-08-15T09:48:09.063Z,992.27
2022-08-15T09:49:09.059Z,992.25
2022-08-15T09:50:09.034Z,992.27
2022-08-15T09:51:09.040Z,992.24
2022-08-15T09:52:09.022Z,992.25
2022-08-15T09:53:09.110Z,992.25
2022-08-15T09:54:08.999Z,992.28
2022-08-15T09:55:08.982Z,992.28
2022-08-15T09:56:08.989Z,992.34
2022-08-15T09:57:08.991Z,992.3
2022-08-15T09:58:08.970Z,992.2
2022-08-15T09:59:08.975Z,992.28
2022-08-15T10:00:08.941Z,992.23
2022-08-15T10:01:08.916Z,992.26
2022-08-15T10:02:08.918Z,992.23
2022-08-15T10:03:08.916Z,992.3
2022-08-15T10:04:08.899Z,992.18
2022-08-15T10:05:08.875Z,992.26
2022-08-15T10:06:08.867Z,992.22
2022-08-15T10:07:08.875Z,992.25
2022-08-15T10:08:08.930Z,992.29
2022-08-15T10:09:08.871Z,992.33
2022-08-15T10:10:08.832Z,992.29
2022-08-15T10:11:08.840Z,992.25
2022-08-15T10:12:08.826Z,992.32
2022-08-15T10:13:08.795Z,992.34
2022-08-15T10:14:08.799Z,992.34
2022-08-15T10:15:08.773Z,992.34
2022-08-15T10:16:08.779Z,992.39
2022-08-15T10:17:08.753Z,992.35
2022-08-15T10:18:08.751Z,992.3
2022-08-15T10:19:08.726Z,992.44
2022-08-15T10:20:08.719Z,992.43
2022-08-15T10:21:08.732Z,992.44
2022-08-15T10:22:08.699Z,992.41
2022-08-15T10:23:08.688Z,992.42
2022-08-15T10:24:08.687Z,992.44
2022-08-15T10:25:08.679Z,992.5
2022-08-15T10:26:08.660Z,992.52
2022-08-15T10:27:08.654Z,992.48
2022-08-15T10:28:08.657Z,992.53
2022-08-15T10:29:08.627Z,992.49
2022-08-15T10:30:08.622Z,992.5
2022-08-15T10:31:08.611Z,992.55
2022-08-15T10:32:08.597Z,992.5
2022-08-15T10:33:08.620Z,992.51
2022-08-15T10:34:08.579Z,992.51
2022-08-15T10:35:08.571Z,992.53
2022-08-15T10:36:08.560Z,992.52
2022-08-15T10:37:08.546Z,992.52
2022-08-15T10:38:08.550Z,992.57
2022-08-15T10:39:08.531Z,992.62
2022-08-15T10:40:08.531Z,992.61
2022-08-15T10:41:08.506Z,992.66
2022-08-15T10:42:08.502Z,992.64
2022-08-15T10:43:08.489Z,992.68
2022-08-15T10:44:08.479Z,992.69
2022-08-15T10:45:08.471Z,992.64
2022-08-15T10:46:08.496Z,992.65
2022-08-15T10:47:08.448Z,992.74
2022-08-15T10:48:08.439Z,992.67
2022-08-15T10:49:08.424Z,992.72
2022-08-15T10:50:08.415Z,992.69
2022-08-15T10:51:08.408Z,992.67
2022-08-15T10:52:08.410Z,992.66
2022-08-15T10:53:08.388Z,992.66
2022-08-15T10:54:08.376Z,992.65
2022-08-15T10:55:08.365Z,992.67
2022-08-15T10:56:08.391Z,992.77
2022-08-15T10:57:08.347Z,992.75
2022-08-15T10:58:08.346Z,992.78
2022-08-15T10:59:08.319Z,992.75
2022-08-15T11:00:08.319Z,992.81
2022-08-15T11:01:08.326Z,992.75
2022-08-15T11:02:08.291Z,992.67
2022-08-15T11:03:08.289Z,992.7
2022-08-15T11:04:08.279Z,992.79
2022-08-15T11:05:08.270Z,992.78
2022-08-15T11:06:08.249Z,992.9
2022-08-15T11:07:08.236Z,992.9
2022-08-15T11:08:08.236Z,992.89
2022-08-15T11:09:08.221Z,992.9
2022-08-15T11:10:08.217Z,992.92
2022-08-15T11:11:08.200Z,992.94
2022-08-15T11:12:08.187Z,992.87
2022-08-15T11:13:08.174Z,992.89
2022-08-15T11:14:08.197Z,992.94
2022-08-15T11:15:08.165Z,993
2022-08-15T11:16:08.145Z,993
2022-08-15T11:17:08.133Z,992.93
2022-08-15T11:18:08.145Z,992.99
2022-08-15T11:19:08.125Z,992.95
2022-08-15T11:20:08.102Z,992.94
2022-08-15T11:21:08.092Z,993.02
2022-08-15T11:22:08.113Z,993.06
2022-08-15T11:23:08.073Z,993.02
2022-08-15T11:24:08.061Z,993.06
2022-08-15T11:25:08.047Z,993.05
2022-08-15T11:26:08.038Z,993.06
2022-08-15T11:27:08.031Z,993.03
2022-08-15T11:28:08.032Z,993.02
2022-08-15T11:29:08.006Z,993.02
2022-08-15T11:30:07.998Z,993.01
2022-08-15T11:31:08.007Z,992.94
2022-08-15T11:32:07.976Z,992.94
2022-08-15T11:33:07.973Z,992.94
2022-08-15T11:34:07.979Z,992.98
2022-08-15T11:35:07.946Z,993.03
2022-08-15T11:36:07.938Z,992.99
2022-08-15T11:37:07.926Z,993
2022-08-15T11:38:07.927Z,993.05
2022-08-15T11:39:07.907Z,993.01
2022-08-15T11:40:07.909Z,993.06
2022-08-15T11:41:07.889Z,993.05
2022-08-15T11:42:07.875Z,993.02
2022-08-15T11:43:07.869Z,993
2022-08-15T11:44:07.853Z,992.93
2022-08-15T11:45:07.852Z,992.94
2022-08-15T11:46:07.868Z,992.92
2022-08-15T11:47:07.839Z,992.89
2022-08-15T11:48:07.863Z,992.93
2022-08-15T11:49:07.816Z,992.98
2022-08-15T11:50:07.791Z,992.98
2022-08-15T11:51:07.802Z,993.05
2022-08-15T11:52:07.776Z,993.03
2022-08-15T11:53:07.760Z,993.02
2022-08-15T11:54:07.756Z,993.06
2022-08-15T11:55:07.738Z,993.07
2022-08-15T11:56:07.758Z,993
2022-08-15T11:57:07.721Z,992.97
2022-08-15T11:58:07.732Z,993
2022-08-15T11:59:07.708Z,993.04
2022-08-15T12:00:07.702Z,993.01
2022-08-15T12:01:07.672Z,993.05
2022-08-15T12:02:07.679Z,992.98
2022-08-15T12:03:07.660Z,992.98
2022-08-15T12:04:07.640Z,992.95
2022-08-15T12:05:07.633Z,992.98
2022-08-15T12:06:07.626Z,992.9
2022-08-15T12:07:07.611Z,993.02
2022-08-15T12:08:07.615Z,993.07
2022-08-15T12:09:07.594Z,993.08
2022-08-15T12:10:07.583Z,993.12
2022-08-15T12:11:07.571Z,993.22
2022-08-15T12:12:07.563Z,993.22
2022-08-15T12:13:07.548Z,993.16
2022-08-15T12:14:07.539Z,993.13
2022-08-15T12:15:07.558Z,993.13
2022-08-15T12:16:07.518Z,993.15
2022-08-15T12:17:07.513Z,993.14
2022-08-15T12:18:07.495Z,993.15
2022-08-15T12:19:07.489Z,993.17
2022-08-15T12:20:07.525Z,993.16
2022-08-15T12:21:07.492Z,993.24
2022-08-15T12:22:07.472Z,993.18
2022-08-15T12:23:07.447Z,993.22
2022-08-15T12:24:07.435Z,993.23
2022-08-15T12:25:07.429Z,993.18
2022-08-15T12:26:07.411Z,993.19
2022-08-15T12:27:07.407Z,993.21
2022-08-15T12:28:07.400Z,993.2
2022-08-15T12:29:07.383Z,993.2
2022-08-15T12:30:07.371Z,993.11
2022-08-15T12:31:07.403Z,993.09
2022-08-15T12:32:07.347Z,993.1
2022-08-15T12:33:07.350Z,993.07
2022-08-15T12:34:07.331Z,993.05
2022-08-15T12:35:07.349Z,993.05
2022-08-15T12:36:07.315Z,993.06